createdAt,value
2022-11-02T00:01:01.448Z,3.13
2022-11-02T00:05:02.553Z,3.43
2022-11-02T00:09:03.604Z,3.67
2022-11-02T00:13:04.990Z,3.83
2022-11-02T00:17:07.163Z,3.00
2022-11-02T00:21:08.305Z,3.03
2022-11-02T00:25:12.181Z,3.07
2022-11-02T00:29:13.447Z,4.40
2022-11-02T00:33:14.383Z,3.27
2022-11-02T00:37:15.401Z,3.73
2022-11-02T00:41:20.101Z,3.93
2022-11-02T00:45:22.442Z,3.00
2022-11-02T00:49:23.424Z,3.53
2022-11-02T00:53:24.529Z,3.17
2022-11-02T00:57:25.560Z,3.93
2022-11-02T01:01:26.640Z,3.57
2022-11-02T01:05:28.848Z,3.50
2022-11-02T01:09:29.914Z,3.07
2022-11-02T01:13:30.985Z,2.97
2022-11-02T01:17:32.058Z,4.37
2022-11-02T01:21:33.240Z,5.17
2022-11-02T01:25:34.200Z,3.80
2022-11-02T01:29:35.195Z,3.70
2022-11-02T01:33:36.878Z,5.40
2022-11-02T01:37:38.076Z,3.80
2022-11-02T01:41:39.495Z,4.00
2022-11-02T01:45:42.663Z,3.87
2022-11-02T01:49:46.676Z,4.13
2022-11-02T01:53:50.418Z,3.80
2022-11-02T01:58:00.765Z,3.60
2022-11-02T02:02:05.447Z,3.73
2022-11-02T02:06:10.185Z,3.13
2022-11-02T02:10:11.707Z,3.83
2022-11-02T02:14:19.029Z,3.43
2022-11-02T02:18:29.683Z,4.30
2022-11-02T02:22:37.308Z,3.73
2022-11-02T02:26:54.121Z,3.23
2022-11-02T02:30:58.864Z,4.33
2022-11-02T02:35:12.627Z,3.60
2022-11-02T02:39:29.453Z,3.67
2022-11-02T02:43:43.366Z,3.30
2022-11-02T02:47:50.945Z,2.80
2022-11-02T02:51:54.781Z,3.00
2022-11-02T02:55:59.155Z,4.00
2022-11-02T03:00:00.204Z,3.53
2022-11-02T03:04:01.335Z,2.80
2022-11-02T03:08:06.438Z,3.30
2022-11-02T03:12:29.477Z,3.40
2022-11-02T03:16:52.434Z,4.00
2022-11-02T03:21:11.905Z,3.50
2022-11-02T03:25:19.423Z,3.80
2022-11-02T03:29:26.436Z,3.67
2022-11-02T03:33:40.393Z,4.00
2022-11-02T03:37:53.885Z,3.57
2022-11-02T03:41:58.042Z,3.40
2022-11-02T03:46:02.005Z,4.07
2022-11-02T03:50:06.525Z,4.17
2022-11-02T03:54:16.978Z,3.50
2022-11-02T03:58:17.944Z,4.30
2022-11-02T04:02:19.490Z,3.73
2022-11-02T04:06:20.611Z,4.77
2022-11-02T04:10:21.709Z,3.90
2022-11-02T04:14:37.459Z,3.60
2022-11-02T04:18:57.013Z,3.57
2022-11-02T04:23:17.133Z,3.73
2022-11-02T04:27:20.927Z,3.83
2022-11-02T04:31:20.842Z,3.90
2022-11-02T04:35:21.846Z,3.97
2022-11-02T04:39:22.799Z,4.10
2022-11-02T04:43:23.882Z,4.20
2022-11-02T04:47:24.812Z,4.37
2022-11-02T04:51:28.361Z,6.30
2022-11-02T04:55:29.692Z,5.93
2022-11-02T04:59:30.538Z,6.97
2022-11-02T05:03:31.389Z,4.60
2022-11-02T05:07:32.327Z,4.63
2022-11-02T05:11:33.793Z,4.37
2022-11-02T05:15:34.895Z,4.20
2022-11-02T05:19:35.732Z,6.33
2022-11-02T05:23:38.009Z,4.00
2022-11-02T05:27:39.062Z,5.07
2022-11-02T05:31:40.017Z,4.93
2022-11-02T05:35:41.296Z,6.77
2022-11-02T05:39:44.096Z,4.57
2022-11-02T05:43:45.509Z,4.97
2022-11-02T05:47:46.496Z,4.47
2022-11-02T05:51:48.683Z,4.80
2022-11-02T05:55:50.179Z,4.20
2022-11-02T05:59:51.041Z,6.27
2022-11-02T06:03:53.811Z,6.70
2022-11-02T06:07:57.396Z,6.50
2022-11-02T06:11:58.344Z,5.40
2022-11-02T06:16:01.705Z,5.73
2022-11-02T06:20:02.995Z,5.83
2022-11-02T06:24:04.353Z,5.60
2022-11-02T06:28:05.320Z,5.67
2022-11-02T06:32:06.385Z,5.47
2022-11-02T06:36:07.903Z,7.87
2022-11-02T06:40:10.281Z,4.20
2022-11-02T06:44:11.249Z,5.03
2022-11-02T06:48:12.243Z,4.70
2022-11-02T06:52:13.194Z,5.47
2022-11-02T06:56:14.474Z,5.50
2022-11-02T07:00:21.107Z,6.60
2022-11-02T07:04:22.034Z,4.37
2022-11-02T07:08:23.741Z,5.17
2022-11-02T07:12:24.811Z,4.13
2022-11-02T07:16:25.868Z,4.87
2022-11-02T07:20:26.906Z,12.97
2022-11-02T07:24:27.974Z,7.13
2022-11-02T07:28:28.917Z,9.30
2022-11-02T07:32:29.854Z,7.83
2022-11-02T07:36:30.822Z,5.20
2022-11-02T07:40:35.085Z,6.00
2022-11-02T07:44:36.148Z,4.97
2022-11-02T07:48:37.172Z,4.63
2022-11-02T07:52:52.149Z,4.80
2022-11-02T07:56:53.255Z,4.00
2022-11-02T08:01:00.149Z,4.60
2022-11-02T08:05:01.226Z,3.90
2022-11-02T08:09:03.544Z,4.90
2022-11-02T08:13:04.635Z,4.90
2022-11-02T08:17:05.500Z,4.90
2022-11-02T08:21:06.405Z,4.53
2022-11-02T08:25:09.301Z,4.07
2022-11-02T08:29:10.284Z,4.50
2022-11-02T08:33:15.009Z,4.63
2022-11-02T08:37:16.128Z,4.63
2022-11-02T08:41:17.429Z,3.10
2022-11-02T08:45:18.488Z,3.50
2022-11-02T08:49:19.656Z,3.60
2022-11-02T08:53:20.516Z,3.53
2022-11-02T08:57:21.616Z,3.47
2022-11-02T09:01:22.771Z,3.83
2022-11-02T09:05:23.828Z,3.17
2022-11-02T09:09:24.796Z,3.80
2022-11-02T09:13:26.136Z,3.33
2022-11-02T09:17:28.549Z,3.53
2022-11-02T09:21:29.644Z,2.77
2022-11-02T09:25:30.697Z,2.53
2022-11-02T09:29:31.626Z,3.27
2022-11-02T09:33:33.826Z,2.90
2022-11-02T09:37:35.876Z,2.73
2022-11-02T09:41:40.755Z,2.37
2022-11-02T09:45:54.526Z,3.00
2022-11-02T09:49:58.111Z,2.47
2022-11-02T09:54:13.143Z,2.10
2022-11-02T09:58:15.905Z,2.70
2022-11-02T10:02:20.724Z,2.40
2022-11-02T10:06:24.082Z,2.13
2022-11-02T10:10:35.111Z,3.13
2022-11-02T10:14:40.029Z,3.20
2022-11-02T10:18:42.131Z,2.70
2022-11-02T10:22:45.135Z,2.47
2022-11-02T10:26:48.061Z,3.10
2022-11-02T10:30:49.780Z,2.53
2022-11-02T10:34:59.304Z,2.90
2022-11-02T10:39:04.184Z,2.20
2022-11-02T10:43:30.238Z,2.40
2022-11-02T10:47:35.205Z,2.03
2022-11-02T10:51:36.245Z,2.63
2022-11-02T10:55:50.419Z,3.50
2022-11-02T11:00:27.213Z,1.90
2022-11-02T11:04:30.322Z,2.83
2022-11-02T11:08:41.484Z,2.40
2022-11-02T11:12:42.777Z,3.07
2022-11-02T11:16:53.990Z,2.20
2022-11-02T11:20:56.038Z,7.47
2022-11-02T11:25:27.036Z,2.40
2022-11-02T11:29:25.316Z,2.03
2022-11-02T11:33:26.588Z,2.43
2022-11-02T11:37:28.341Z,2.17
2022-11-02T11:41:31.655Z,2.07
2022-11-02T11:45:33.005Z,4.70
2022-11-02T11:53:40.465Z,2.47
2022-11-02T11:57:43.300Z,1.47
2022-11-02T12:01:44.581Z,2.40
2022-11-02T12:06:08.033Z,2.00
2022-11-02T12:10:21.909Z,2.00
2022-11-02T12:14:44.705Z,1.73
2022-11-02T12:18:55.732Z,1.73
2022-11-02T12:23:27.990Z,2.50
2022-11-02T12:27:42.900Z,1.93
2022-11-02T12:32:01.085Z,2.13
2022-11-02T12:36:06.260Z,1.87
2022-11-02T12:40:14.395Z,2.00
2022-11-02T12:44:26.427Z,2.40
2022-11-02T12:48:31.201Z,2.30
2022-11-02T12:52:38.905Z,2.43
2022-11-02T12:56:50.084Z,1.90
2022-11-02T13:01:29.712Z,2.43
2022-11-02T13:05:43.669Z,1.60
2022-11-02T13:09:51.828Z,2.43
2022-11-02T13:13:56.343Z,2.63
2022-11-02T13:18:01.202Z,1.90
2022-11-02T13:22:03.944Z,1.63
2022-11-02T13:26:14.644Z,2.17
2022-11-02T13:30:17.575Z,3.17
2022-11-02T13:34:39.361Z,1.87
2022-11-02T13:38:50.067Z,1.90
2022-11-02T13:43:03.841Z,1.70
2022-11-02T13:47:14.794Z,2.23
2022-11-02T13:51:34.313Z,1.83
2022-11-02T13:55:50.003Z,2.23
2022-11-02T13:59:51.231Z,2.83
2022-11-02T14:04:00.590Z,2.23
2022-11-02T14:08:05.585Z,2.47
2022-11-02T14:12:23.208Z,2.27
2022-11-02T14:16:44.751Z,2.20
2022-11-02T14:20:46.942Z,1.80
2022-11-02T14:24:53.317Z,1.90
2022-11-02T14:28:55.026Z,1.90
2022-11-02T14:33:02.586Z,2.27
2022-11-02T14:37:10.201Z,1.80
2022-11-02T14:41:16.002Z,1.87
2022-11-02T14:45:44.024Z,1.93
2022-11-02T14:49:58.009Z,2.03
2022-11-02T14:54:05.490Z,2.97
2022-11-02T14:58:16.062Z,2.07
2022-11-02T15:02:20.940Z,2.33
2022-11-02T15:06:28.702Z,2.47
2022-11-02T15:10:33.662Z,2.77
2022-11-02T15:14:38.431Z,2.00
2022-11-02T15:18:39.947Z,2.27
2022-11-02T15:22:44.553Z,2.67
2022-11-02T15:26:55.299Z,3.10
2022-11-02T15:30:59.466Z,2.53
2022-11-02T15:35:00.952Z,2.57
2022-11-02T15:39:06.375Z,3.03
2022-11-02T15:43:14.211Z,2.83
2022-11-02T15:47:31.730Z,2.90
2022-11-02T15:51:36.644Z,2.73
2022-11-02T15:56:13.369Z,2.63
2022-11-02T16:00:17.704Z,2.60
2022-11-02T16:04:20.356Z,3.77
2022-11-02T16:08:24.066Z,4.70
2022-11-02T16:12:29.108Z,4.20
2022-11-02T16:16:35.494Z,5.97
2022-11-02T16:20:36.156Z,5.40
2022-11-02T16:24:41.001Z,5.53
2022-11-02T16:28:42.021Z,4.47
2022-11-02T16:32:43.850Z,3.43
2022-11-02T16:36:45.845Z,4.12
2022-11-02T16:40:47.095Z,3.23
2022-11-02T16:45:00.479Z,4.40
2022-11-02T16:49:14.795Z,4.33
2022-11-02T16:53:19.557Z,5.60
2022-11-02T16:57:26.971Z,4.40
2022-11-02T17:01:38.179Z,4.60
2022-11-02T17:05:41.567Z,4.70
2022-11-02T17:09:42.765Z,5.87
2022-11-02T17:13:50.357Z,9.97
2022-11-02T17:18:10.238Z,5.33
2022-11-02T17:22:26.320Z,5.10
2022-11-02T17:26:30.665Z,7.13
2022-11-02T17:30:38.264Z,5.47
2022-11-02T17:34:40.100Z,3.53
2022-11-02T17:38:41.548Z,3.40
2022-11-02T17:42:57.824Z,4.53
2022-11-02T17:46:58.827Z,5.42
2022-11-02T17:51:00.132Z,4.30
2022-11-02T17:55:01.186Z,3.33
2022-11-02T17:59:02.158Z,3.27
2022-11-02T18:03:04.174Z,3.63
2022-11-02T18:07:05.163Z,4.60
2022-11-02T18:11:08.462Z,12.57
2022-11-02T18:15:16.199Z,12.70
2022-11-02T18:19:17.181Z,11.03
2022-11-02T18:23:19.071Z,10.00
2022-11-02T18:27:21.637Z,11.30
2022-11-02T18:31:23.066Z,10.33
2022-11-02T18:35:24.301Z,9.47
2022-11-02T18:39:25.396Z,8.10
2022-11-02T18:43:26.415Z,8.20
2022-11-02T18:47:27.361Z,7.40
2022-11-02T18:51:28.333Z,8.17
2022-11-02T18:55:29.423Z,22.30
2022-11-02T18:59:30.693Z,20.57
2022-11-02T19:03:31.645Z,15.00
2022-11-02T19:07:51.377Z,18.30
2022-11-02T19:12:03.527Z,14.93
2022-11-02T19:16:05.134Z,10.80
2022-11-02T19:20:07.161Z,10.35
2022-11-02T19:24:08.742Z,11.37
2022-11-02T19:28:09.886Z,10.98
2022-11-02T19:32:11.463Z,13.00
2022-11-02T19:36:12.630Z,15.00
2022-11-02T19:40:14.538Z,14.10
2022-11-02T19:44:15.561Z,15.17
2022-11-02T19:48:16.877Z,15.60
2022-11-02T19:52:17.847Z,13.00
2022-11-02T19:56:20.767Z,15.17
2022-11-02T20:00:22.022Z,12.73
2022-11-02T20:04:23.130Z,16.07
2022-11-02T20:08:26.072Z,13.97
2022-11-02T20:12:27.246Z,16.45
2022-11-02T20:16:29.184Z,14.57
2022-11-02T20:20:30.509Z,13.70
2022-11-02T20:24:31.897Z,14.67
2022-11-02T20:28:42.168Z,12.10
2022-11-02T20:32:43.426Z,12.97
2022-11-02T20:36:45.118Z,13.43
2022-11-02T20:40:46.362Z,8.10
2022-11-02T20:44:48.868Z,8.40
2022-11-02T20:48:50.623Z,7.43
2022-11-02T20:52:53.703Z,6.97
2022-11-02T20:56:54.869Z,7.70
2022-11-02T21:00:57.045Z,7.60
2022-11-02T21:04:58.325Z,7.63
2022-11-02T21:08:59.878Z,5.00
2022-11-02T21:13:20.079Z,4.50
2022-11-02T21:17:21.415Z,4.57
2022-11-02T21:21:22.592Z,4.57
2022-11-02T21:25:23.991Z,4.33
2022-11-02T21:29:25.418Z,3.57
2022-11-02T21:33:26.450Z,3.87
2022-11-02T21:37:27.633Z,4.27
2022-11-02T21:41:29.409Z,3.13
2022-11-02T21:45:34.956Z,4.07
2022-11-02T21:49:33.683Z,4.17
2022-11-02T21:53:36.737Z,3.98
2022-11-02T21:57:38.171Z,4.13
2022-11-02T22:01:46.212Z,4.07
2022-11-02T22:05:56.650Z,5.13
2022-11-02T22:09:58.017Z,4.87
2022-11-02T22:14:00.732Z,4.97
2022-11-02T22:18:01.962Z,7.40
2022-11-02T22:22:03.075Z,6.00
2022-11-02T22:26:06.659Z,6.80
2022-11-02T22:30:08.416Z,6.87
2022-11-02T22:34:11.571Z,7.57
2022-11-02T22:38:31.741Z,9.13
2022-11-02T22:42:38.190Z,9.60
2022-11-02T22:46:40.102Z,9.10
2022-11-02T22:50:43.435Z,8.03
2022-11-02T22:54:44.496Z,6.73
2022-11-02T22:58:46.684Z,7.37
2022-11-02T23:02:48.600Z,8.13
2022-11-02T23:06:49.641Z,6.80
2022-11-02T23:11:16.893Z,6.93
2022-11-02T23:15:17.962Z,7.93
2022-11-02T23:19:29.299Z,6.50
2022-11-02T23:23:49.596Z,5.50
2022-11-02T23:28:14.427Z,7.53
2022-11-02T23:32:27.703Z,8.17
2022-11-02T23:36:28.824Z,8.93
2022-11-02T23:40:31.790Z,10.83
2022-11-02T23:44:32.950Z,11.93
2022-11-02T23:48:34.204Z,9.03
2022-11-02T23:52:53.996Z,9.53
2022-11-02T23:56:55.139Z,10.00
